createdAt,value
2023-06-20T00:00:49.456Z,9.800000191
2023-06-20T00:01:50.345Z,9.699999809
2023-06-20T00:02:51.259Z,9.5
2023-06-20T00:03:52.354Z,9.199999809
2023-06-20T00:04:53.767Z,9.399999619
2023-06-20T00:05:54.480Z,8.699999809
2023-06-20T00:06:55.315Z,9.5
2023-06-20T00:07:56.164Z,9.399999619
2023-06-20T00:08:57.609Z,8.699999809
2023-06-20T00:09:58.390Z,9
2023-06-20T00:10:59.161Z,9.399999619
2023-06-20T00:12:00.086Z,8.899999619
2023-06-20T00:13:01.777Z,10.19999981
2023-06-20T00:14:02.578Z,9.899999619
2023-06-20T00:15:03.448Z,9.300000191
2023-06-20T00:16:04.056Z,9.899999619
2023-06-20T00:17:04.805Z,9.600000381
2023-06-20T00:18:05.711Z,9.300000191
2023-06-20T00:19:06.324Z,9.5
2023-06-20T00:20:07.209Z,9.300000191
2023-06-20T00:21:08.044Z,9.399999619
2023-06-20T00:22:09.361Z,8.899999619
2023-06-20T00:23:10.126Z,9
2023-06-20T00:24:11.035Z,8.600000381
2023-06-20T00:25:12.238Z,9.100000381
2023-06-20T00:26:13.216Z,9.600000381
2023-06-20T00:27:44.881Z,9.399999619
2023-06-20T00:28:45.599Z,8.800000191
2023-06-20T00:29:46.333Z,9.300000191
2023-06-20T00:30:47.809Z,8.5
2023-06-20T00:31:49.324Z,9.100000381
2023-06-20T00:32:50.274Z,9.699999809
2023-06-20T00:33:51.137Z,9.199999809
2023-06-20T00:34:52.734Z,8.5
2023-06-20T00:35:54.327Z,9.100000381
2023-06-20T00:36:55.023Z,9.300000191
2023-06-20T00:37:55.886Z,9.5
2023-06-20T00:38:57.783Z,8.699999809
2023-06-20T00:39:58.571Z,9.399999619
2023-06-20T00:40:59.272Z,9.399999619
2023-06-20T00:42:00.036Z,8.600000381
2023-06-20T00:43:00.997Z,8.800000191
2023-06-20T00:44:01.822Z,8.100000381
2023-06-20T00:45:03.312Z,7.699999809
2023-06-20T00:46:04.113Z,8.300000191
2023-06-20T00:47:04.777Z,7.900000095
2023-06-20T00:48:05.634Z,8.5
2023-06-20T00:49:06.458Z,7.400000095
2023-06-20T00:50:07.332Z,7.699999809
2023-06-20T00:51:08.805Z,7.199999809
2023-06-20T00:52:09.565Z,6.900000095
2023-06-20T00:53:11.251Z,7.900000095
2023-06-20T00:54:12.058Z,7.199999809
2023-06-20T00:55:13.803Z,6.599999905
2023-06-20T00:56:45.157Z,7.300000191
2023-06-20T00:57:45.994Z,7.400000095
2023-06-20T00:58:46.837Z,8.100000381
2023-06-20T00:59:47.783Z,8.399999619
2023-06-20T01:00:49.801Z,7.800000191
2023-06-20T01:01:50.709Z,8.199999809
2023-06-20T01:02:52.300Z,8.100000381
2023-06-20T01:03:53.085Z,8
2023-06-20T01:04:53.886Z,8
2023-06-20T01:05:55.688Z,8.600000381
2023-06-20T01:06:56.603Z,9
2023-06-20T01:07:57.308Z,8.300000191
2023-06-20T01:08:58.709Z,9.199999809
2023-06-20T01:10:00.336Z,8.699999809
2023-06-20T01:11:01.207Z,8.199999809
2023-06-20T01:12:02.078Z,9
2023-06-20T01:13:02.952Z,8.899999619
2023-06-20T01:14:03.764Z,8.5
2023-06-20T01:15:05.249Z,9.100000381
2023-06-20T01:16:06.946Z,9.100000381
2023-06-20T01:17:07.857Z,9
2023-06-20T01:18:08.772Z,9.100000381
2023-06-20T01:19:09.727Z,9.100000381
2023-06-20T01:20:11.174Z,9.199999809
2023-06-20T01:21:11.983Z,8.699999809
2023-06-20T01:22:13.644Z,8.300000191
2023-06-20T01:23:45.812Z,9.600000381
2023-06-20T01:24:46.747Z,9.399999619
2023-06-20T01:25:48.163Z,9.100000381
2023-06-20T01:26:49.362Z,9
2023-06-20T01:27:50.272Z,9.600000381
2023-06-20T01:28:51.810Z,9.100000381
2023-06-20T01:29:52.626Z,10.30000019
2023-06-20T01:30:53.481Z,8.699999809
2023-06-20T01:31:54.812Z,8.899999619
2023-06-20T01:32:55.741Z,9.600000381
2023-06-20T01:33:56.591Z,8.600000381
2023-06-20T01:34:57.446Z,8.899999619
2023-06-20T01:35:59.200Z,9.100000381
2023-06-20T01:37:00.073Z,9.399999619
2023-06-20T01:38:00.967Z,9.100000381
2023-06-20T01:39:02.814Z,9.100000381
2023-06-20T01:40:04.316Z,9
2023-06-20T01:41:05.143Z,8.300000191
2023-06-20T01:42:05.969Z,8.5
2023-06-20T01:43:06.906Z,8.399999619
2023-06-20T01:44:07.805Z,8.5
2023-06-20T01:45:08.696Z,8.5
2023-06-20T01:46:10.269Z,8.300000191
2023-06-20T01:47:11.108Z,9.699999809
2023-06-20T01:48:11.987Z,8.5
2023-06-20T01:49:44.206Z,7.699999809
2023-06-20T01:50:45.066Z,9.199999809
2023-06-20T01:51:45.897Z,8.800000191
2023-06-20T01:52:46.716Z,8.600000381
2023-06-20T01:53:47.560Z,8.899999619
2023-06-20T01:54:48.736Z,8
2023-06-20T01:55:50.350Z,8.699999809
2023-06-20T01:56:51.161Z,8.5
2023-06-20T01:57:52.027Z,8.600000381
2023-06-20T01:58:53.026Z,8.699999809
2023-06-20T01:59:53.992Z,8.600000381
2023-06-20T02:00:54.753Z,7.800000191
2023-06-20T02:01:56.272Z,8.600000381
2023-06-20T02:02:57.156Z,8.199999809
2023-06-20T02:03:58.735Z,8.600000381
2023-06-20T02:04:59.539Z,8.100000381
2023-06-20T02:06:01.308Z,9.100000381
2023-06-20T02:07:02.197Z,8.800000191
2023-06-20T02:08:03.725Z,7.900000095
2023-06-20T02:09:04.561Z,8.5
2023-06-20T02:10:06.196Z,7.599999905
2023-06-20T02:11:07.010Z,7.5
2023-06-20T02:12:07.934Z,7.5
2023-06-20T02:13:09.812Z,7.900000095
2023-06-20T02:14:10.662Z,7.400000095
2023-06-20T02:15:11.481Z,7.099999905
2023-06-20T02:16:43.995Z,7.400000095
2023-06-20T02:17:44.897Z,7.699999809
2023-06-20T02:18:45.762Z,7.699999809
2023-06-20T02:19:46.610Z,8.199999809
2023-06-20T02:20:47.430Z,7.599999905
2023-06-20T02:21:48.441Z,7.300000191
2023-06-20T02:22:49.393Z,7.199999809
2023-06-20T02:23:50.283Z,7.199999809
2023-06-20T02:24:51.216Z,7.400000095
2023-06-20T02:25:52.782Z,7.199999809
2023-06-20T02:26:53.625Z,7.900000095
2023-06-20T02:27:54.424Z,7.5
2023-06-20T02:28:55.325Z,7.699999809
2023-06-20T02:29:56.938Z,8
2023-06-20T02:30:57.746Z,7.800000191
2023-06-20T02:31:59.259Z,7.699999809
2023-06-20T02:33:00.075Z,8.199999809
2023-06-20T02:34:01.811Z,7.400000095
2023-06-20T02:35:02.773Z,7
2023-06-20T02:36:04.324Z,6.900000095
2023-06-20T02:37:05.144Z,7.800000191
2023-06-20T02:38:05.915Z,7.400000095
2023-06-20T02:39:06.770Z,7.300000191
2023-06-20T02:40:08.333Z,7.599999905
2023-06-20T02:41:09.188Z,7.5
2023-06-20T02:42:10.073Z,7.300000191
2023-06-20T02:43:11.870Z,7.300000191
2023-06-20T02:44:43.243Z,8.5
2023-06-20T02:45:44.184Z,8.600000381
2023-06-20T02:46:45.696Z,7.099999905
2023-06-20T02:47:46.557Z,7.5
2023-06-20T02:48:47.285Z,7.099999905
2023-06-20T02:49:48.032Z,8.199999809
2023-06-20T02:50:48.994Z,8.100000381
2023-06-20T02:51:49.742Z,8.5
2023-06-20T02:52:51.174Z,8
2023-06-20T02:53:51.947Z,7.699999809
2023-06-20T02:54:52.750Z,8.399999619
2023-06-20T02:55:54.330Z,7.699999809
2023-06-20T02:56:55.061Z,7.800000191
2023-06-20T02:57:55.892Z,8.399999619
2023-06-20T02:58:56.677Z,8
2023-06-20T02:59:57.533Z,8.300000191
2023-06-20T03:00:58.459Z,7.900000095
2023-06-20T03:01:59.792Z,8.399999619
2023-06-20T03:03:00.631Z,7.900000095
2023-06-20T03:04:02.260Z,7.900000095
2023-06-20T03:05:03.044Z,7.900000095
2023-06-20T03:06:04.384Z,7.699999809
2023-06-20T03:07:05.162Z,8.300000191
2023-06-20T03:08:05.970Z,7.699999809
2023-06-20T03:09:06.730Z,8.699999809
2023-06-20T03:10:08.322Z,7.800000191
2023-06-20T03:11:09.132Z,7.800000191
2023-06-20T03:12:09.908Z,8.199999809
2023-06-20T03:13:11.321Z,7.900000095
2023-06-20T03:14:42.649Z,8.300000191
2023-06-20T03:15:43.819Z,8.199999809
2023-06-20T03:16:45.223Z,8.800000191
2023-06-20T03:17:46.014Z,8.399999619
2023-06-20T03:18:46.793Z,8.199999809
2023-06-20T03:19:47.528Z,8.5
2023-06-20T03:20:48.286Z,7.599999905
2023-06-20T03:21:49.196Z,8.399999619
2023-06-20T03:22:49.975Z,7.599999905
2023-06-20T03:23:51.318Z,9.199999809
2023-06-20T03:24:52.111Z,8.699999809
2023-06-20T03:25:52.894Z,7.599999905
2023-06-20T03:26:54.351Z,7.800000191
2023-06-20T03:27:55.131Z,7.699999809
2023-06-20T03:28:55.928Z,8.100000381
2023-06-20T03:29:56.775Z,8.5
2023-06-20T03:30:57.608Z,7.800000191
2023-06-20T03:31:59.234Z,7.599999905
2023-06-20T03:33:00.068Z,7.5
2023-06-20T03:34:00.815Z,7.900000095
2023-06-20T03:35:01.556Z,8
2023-06-20T03:36:03.313Z,7.400000095
2023-06-20T03:37:03.734Z,8
2023-06-20T03:38:04.538Z,8
2023-06-20T03:39:05.325Z,7.699999809
2023-06-20T03:40:06.801Z,7.400000095
2023-06-20T03:41:07.631Z,7.699999809
2023-06-20T03:42:08.410Z,8.5
2023-06-20T03:43:09.165Z,7.800000191
2023-06-20T03:44:09.926Z,7.900000095
2023-06-20T03:45:10.702Z,8.300000191
2023-06-20T03:46:42.728Z,8.300000191
2023-06-20T03:47:44.336Z,6.900000095
2023-06-20T03:48:45.074Z,8.600000381
2023-06-20T03:49:45.986Z,8.199999809
2023-06-20T03:50:46.728Z,8.199999809
2023-06-20T03:51:48.335Z,7.900000095
2023-06-20T03:52:49.131Z,8.5
2023-06-20T03:53:49.959Z,8.399999619
2023-06-20T03:54:50.769Z,8.300000191
2023-06-20T03:55:52.218Z,8.199999809
2023-06-20T03:56:53.858Z,7.699999809
2023-06-20T03:57:54.654Z,7.800000191
2023-06-20T03:58:55.446Z,8.5
2023-06-20T03:59:56.248Z,8
2023-06-20T04:00:57.136Z,8.399999619
2023-06-20T04:01:58.785Z,9
2023-06-20T04:02:59.635Z,8.100000381
2023-06-20T04:04:03.371Z,8.300000191
2023-06-20T04:05:02.049Z,8.399999619
2023-06-20T04:06:03.025Z,8.5
2023-06-20T04:07:04.816Z,8.100000381
2023-06-20T04:08:05.592Z,7.300000191
2023-06-20T04:09:06.348Z,8.199999809
2023-06-20T04:10:07.807Z,7.199999809
2023-06-20T04:11:08.579Z,7.300000191
2023-06-20T04:12:09.400Z,8.100000381
2023-06-20T04:13:10.186Z,8.199999809
2023-06-20T04:14:42.138Z,8.199999809
2023-06-20T04:15:42.909Z,8.300000191
2023-06-20T04:16:44.854Z,7.900000095
2023-06-20T04:17:45.640Z,8
2023-06-20T04:18:46.400Z,7.400000095
2023-06-20T04:19:47.168Z,7.099999905
2023-06-20T04:20:48.040Z,7.400000095
2023-06-20T04:21:48.959Z,7.5
2023-06-20T04:22:50.818Z,7.900000095
2023-06-20T04:23:51.611Z,7.400000095
2023-06-20T04:24:52.422Z,7.599999905
2023-06-20T04:25:53.157Z,7.5
2023-06-20T04:26:54.842Z,7.900000095
2023-06-20T04:27:55.618Z,7.900000095
2023-06-20T04:28:56.433Z,7.400000095
2023-06-20T04:29:57.234Z,8.300000191
2023-06-20T04:30:58.122Z,7.699999809
2023-06-20T04:31:59.784Z,7.800000191
2023-06-20T04:33:01.328Z,8.5
2023-06-20T04:34:02.061Z,7.900000095
2023-06-20T04:35:02.850Z,7.800000191
2023-06-20T04:36:03.938Z,8.199999809
2023-06-20T04:37:05.234Z,8.600000381
2023-06-20T04:38:06.983Z,8.100000381
2023-06-20T04:39:07.712Z,8.100000381
2023-06-20T04:40:08.492Z,8
2023-06-20T04:41:11.241Z,8.100000381
2023-06-20T04:42:43.192Z,8.100000381
2023-06-20T04:43:44.690Z,8.399999619
2023-06-20T04:44:45.932Z,8
2023-06-20T04:45:47.402Z,8
2023-06-20T04:46:50.044Z,8.5
2023-06-20T04:47:51.796Z,7.900000095
2023-06-20T04:48:52.575Z,8.800000191
2023-06-20T04:49:53.295Z,8.300000191
2023-06-20T04:50:54.121Z,8.699999809
2023-06-20T04:51:55.603Z,7.699999809
2023-06-20T04:52:56.534Z,7.699999809
2023-06-20T04:53:58.346Z,8.600000381
2023-06-20T04:54:59.216Z,8.5
2023-06-20T04:56:00.002Z,8.300000191
2023-06-20T04:57:01.341Z,8.5
2023-06-20T04:58:02.180Z,8.300000191
2023-06-20T04:59:03.021Z,7.800000191
2023-06-20T05:00:03.867Z,7.800000191
2023-06-20T05:01:04.624Z,7.5
2023-06-20T05:02:06.266Z,7.800000191
2023-06-20T05:03:07.139Z,7.800000191
2023-06-20T05:04:08.731Z,8.199999809
2023-06-20T05:05:09.575Z,8.199999809
2023-06-20T05:06:10.763Z,8.199999809
2023-06-20T05:07:42.762Z,8
2023-06-20T05:08:44.861Z,8.5
2023-06-20T05:09:45.665Z,8.399999619
2023-06-20T05:10:46.478Z,8.199999809
2023-06-20T05:11:47.354Z,6.900000095
2023-06-20T05:12:48.666Z,8
2023-06-20T05:13:50.776Z,7.400000095
2023-06-20T05:14:53.244Z,8.199999809
2023-06-20T05:15:55.051Z,8
2023-06-20T05:16:57.717Z,7.5
2023-06-20T05:17:59.383Z,7.599999905
2023-06-20T05:19:00.977Z,7.699999809
2023-06-20T05:20:02.873Z,7.199999809
2023-06-20T05:21:04.420Z,8.100000381
2023-06-20T05:22:06.600Z,8.199999809
2023-06-20T05:23:07.531Z,7.900000095
2023-06-20T05:24:08.708Z,8.199999809
2023-06-20T05:25:09.701Z,8.199999809
2023-06-20T05:26:41.370Z,8.300000191
2023-06-20T05:27:42.845Z,7.5
2023-06-20T05:28:43.996Z,7.800000191
2023-06-20T05:29:45.407Z,7.5
2023-06-20T05:30:46.251Z,7.900000095
2023-06-20T05:31:47.986Z,7.5
2023-06-20T05:32:49.013Z,8.100000381
2023-06-20T05:33:49.729Z,8.100000381
2023-06-20T05:34:50.523Z,8.300000191
2023-06-20T05:35:51.349Z,7.599999905
2023-06-20T05:36:52.946Z,7.5
2023-06-20T05:37:54.393Z,7.800000191
2023-06-20T05:38:55.292Z,7.699999809
2023-06-20T05:39:58.940Z,7.300000191
2023-06-20T05:40:57.889Z,6.800000191
2023-06-20T05:41:58.703Z,6.5
2023-06-20T05:42:59.641Z,7.300000191
2023-06-20T05:44:01.576Z,7
2023-06-20T05:45:02.491Z,6.400000095
2023-06-20T05:46:03.366Z,7
2023-06-20T05:47:04.216Z,7.099999905
2023-06-20T05:48:05.842Z,6.5
2023-06-20T05:49:06.707Z,6.900000095
2023-06-20T05:50:07.654Z,6.900000095
2023-06-20T05:51:08.545Z,8
2023-06-20T05:52:10.385Z,8.300000191
2023-06-20T05:53:41.543Z,7.5
2023-06-20T05:54:42.397Z,8.399999619
2023-06-20T05:55:43.299Z,7.099999905
2023-06-20T05:56:44.143Z,6.599999905
2023-06-20T05:57:45.757Z,14.89999962
2023-06-20T05:58:46.602Z,7.5
2023-06-20T05:59:47.498Z,8
2023-06-20T06:00:48.381Z,11.30000019
2023-06-20T06:01:49.834Z,11.80000019
2023-06-20T06:02:50.840Z,8
2023-06-20T06:03:52.446Z,8.100000381
2023-06-20T06:04:53.280Z,6.5
2023-06-20T06:05:54.054Z,7
2023-06-20T06:06:54.975Z,7.199999809
2023-06-20T06:07:56.802Z,8.100000381
2023-06-20T06:08:57.587Z,7.699999809
2023-06-20T06:09:58.446Z,9.600000381
2023-06-20T06:10:59.889Z,7.800000191
2023-06-20T06:12:00.811Z,6.800000191
2023-06-20T06:13:01.796Z,6.699999809
2023-06-20T06:14:02.615Z,6.900000095
2023-06-20T06:15:03.417Z,7.5
2023-06-20T06:16:04.231Z,7.300000191
2023-06-20T06:17:05.270Z,7.5
2023-06-20T06:18:06.878Z,6.400000095
2023-06-20T06:19:07.965Z,6.5
2023-06-20T06:20:08.774Z,7.199999809
2023-06-20T06:21:10.012Z,6.800000191
2023-06-20T06:22:41.876Z,6.5
2023-06-20T06:23:43.090Z,6.099999905
2023-06-20T06:24:43.994Z,6.699999809
2023-06-20T06:25:44.833Z,6.599999905
2023-06-20T06:26:45.670Z,6.099999905
2023-06-20T06:27:47.360Z,6.5
2023-06-20T06:28:48.234Z,6.800000191
2023-06-20T06:29:49.901Z,6.400000095
2023-06-20T06:30:50.952Z,7
2023-06-20T06:31:52.265Z,6.599999905
2023-06-20T06:32:53.173Z,6.800000191
2023-06-20T06:33:54.952Z,5.800000191
2023-06-20T06:34:55.798Z,6.5
2023-06-20T06:35:56.690Z,7
2023-06-20T06:36:57.501Z,6.300000191
2023-06-20T06:37:59.326Z,6.300000191
2023-06-20T06:39:00.214Z,6.5
2023-06-20T06:40:01.084Z,6.400000095
2023-06-20T06:41:02.910Z,6.400000095
2023-06-20T06:42:03.713Z,6.099999905
2023-06-20T06:43:04.513Z,6.400000095
2023-06-20T06:44:05.420Z,5.300000191
2023-06-20T06:45:06.857Z,6
2023-06-20T06:46:07.817Z,5.199999809
2023-06-20T06:47:08.692Z,5.300000191
2023-06-20T06:48:40.743Z,5.300000191
2023-06-20T06:49:41.613Z,5.199999809
2023-06-20T06:50:42.481Z,5.5
2023-06-20T06:51:44.340Z,6
2023-06-20T06:52:45.251Z,6
2023-06-20T06:53:46.980Z,5.800000191
2023-06-20T06:54:47.690Z,6.300000191
2023-06-20T06:55:48.574Z,5.800000191
2023-06-20T06:56:49.473Z,5.699999809
2023-06-20T06:57:50.914Z,6.199999809
2023-06-20T06:58:51.794Z,5.900000095
2023-06-20T06:59:52.596Z,5.800000191
2023-06-20T07:00:53.347Z,6
2023-06-20T07:01:54.862Z,5.699999809
2023-06-20T07:02:55.863Z,5.699999809
2023-06-20T07:03:57.778Z,5.5
2023-06-20T07:04:58.187Z,5.400000095
2023-06-20T07:05:59.023Z,5.900000095
2023-06-20T07:06:59.908Z,5.800000191
2023-06-20T07:08:01.338Z,5.400000095
2023-06-20T07:09:02.882Z,4.800000191
2023-06-20T07:10:03.868Z,5
2023-06-20T07:11:04.675Z,4.800000191
2023-06-20T07:12:05.547Z,6.199999809
2023-06-20T07:13:06.407Z,5.5
2023-06-20T07:14:07.880Z,5.5
2023-06-20T07:15:08.817Z,5.5
2023-06-20T07:16:48.948Z,5.099999905
2023-06-20T07:17:40.954Z,5.099999905
2023-06-20T07:18:42.400Z,4.900000095
2023-06-20T07:19:43.234Z,4.699999809
2023-06-20T07:20:44.198Z,4.599999905
2023-06-20T07:21:45.053Z,4.800000191
2023-06-20T07:22:46.786Z,5
2023-06-20T07:23:47.547Z,5.199999809
2023-06-20T07:24:51.915Z,4.5
2023-06-20T07:25:49.555Z,5.099999905
2023-06-20T07:26:50.387Z,4.900000095
2023-06-20T07:27:51.878Z,5.099999905
2023-06-20T07:28:52.719Z,4.699999809
2023-06-20T07:29:54.400Z,4.5
2023-06-20T07:30:55.357Z,5.099999905
2023-06-20T07:31:56.931Z,4.5
2023-06-20T07:32:57.708Z,4.699999809
2023-06-20T07:33:59.322Z,4.900000095
2023-06-20T07:35:00.084Z,4.400000095
2023-06-20T07:36:00.978Z,5.099999905
2023-06-20T07:37:01.839Z,5.300000191
2023-06-20T07:38:03.392Z,5.300000191
2023-06-20T07:39:04.337Z,5.5
2023-06-20T07:40:05.020Z,5.099999905
2023-06-20T07:41:06.902Z,4.900000095
2023-06-20T07:42:08.356Z,4.5
2023-06-20T07:43:39.881Z,4.5
2023-06-20T07:44:40.690Z,4.599999905
2023-06-20T07:45:41.536Z,5
2023-06-20T07:46:42.390Z,4.800000191
2023-06-20T07:47:43.303Z,4.699999809
2023-06-20T07:48:44.854Z,4.699999809
2023-06-20T07:49:46.427Z,4.400000095
2023-06-20T07:50:47.897Z,4.900000095
2023-06-20T07:51:48.917Z,4.400000095
2023-06-20T07:52:50.418Z,3.900000095
2023-06-20T07:53:51.313Z,4.199999809
2023-06-20T07:54:52.199Z,4.699999809
2023-06-20T07:55:53.864Z,4.199999809
2023-06-20T07:56:54.664Z,4.400000095
2023-06-20T07:57:55.529Z,4.099999905
2023-06-20T07:58:57.592Z,4.300000191
2023-06-20T07:59:58.925Z,5.199999809
2023-06-20T08:00:59.761Z,5.800000191
2023-06-20T08:02:01.472Z,5.699999809
2023-06-20T08:03:02.318Z,5.5
2023-06-20T08:04:03.993Z,5.599999905
2023-06-20T08:05:04.762Z,5.300000191
2023-06-20T08:06:06.379Z,5.900000095
2023-06-20T08:07:07.262Z,5.5
2023-06-20T08:08:08.895Z,5.900000095
2023-06-20T08:09:40.869Z,5.900000095
2023-06-20T08:10:41.706Z,5.5
2023-06-20T08:11:43.403Z,6.199999809
2023-06-20T08:12:44.271Z,5.199999809
2023-06-20T08:13:45.100Z,5.099999905
2023-06-20T08:14:45.961Z,4.800000191
2023-06-20T08:15:47.453Z,5.900000095
2023-06-20T08:16:48.237Z,6
2023-06-20T08:17:49.137Z,5.699999809
2023-06-20T08:18:50.824Z,4.900000095
2023-06-20T08:19:51.735Z,4.800000191
2023-06-20T08:20:53.419Z,5.400000095
2023-06-20T08:21:54.290Z,5.199999809
2023-06-20T08:22:55.760Z,5.199999809
2023-06-20T08:23:56.472Z,5.099999905
2023-06-20T08:24:57.952Z,4.5
2023-06-20T08:25:59.408Z,5
2023-06-20T08:27:00.293Z,4.5
2023-06-20T08:28:13.566Z,4.800000191
2023-06-20T08:29:06.203Z,5
2023-06-20T08:30:04.227Z,5
2023-06-20T08:31:05.145Z,5.900000095
2023-06-20T08:32:06.916Z,4.900000095
2023-06-20T08:33:07.864Z,6.199999809
2023-06-20T08:34:39.625Z,5.699999809
2023-06-20T08:35:40.450Z,4.800000191
2023-06-20T08:36:41.323Z,5.5
2023-06-20T08:37:42.902Z,5.099999905
2023-06-20T08:38:44.916Z,5.5
2023-06-20T08:39:45.626Z,5.400000095
2023-06-20T08:40:46.406Z,5.599999905
2023-06-20T08:41:47.338Z,5.699999809
2023-06-20T08:42:48.932Z,5.699999809
2023-06-20T08:43:50.430Z,5.400000095
2023-06-20T08:44:58.092Z,7
2023-06-20T08:45:52.123Z,7.099999905
2023-06-20T08:46:53.928Z,6.099999905
2023-06-20T08:47:54.783Z,5.5
2023-06-20T08:48:56.517Z,5.900000095
2023-06-20T08:49:58.533Z,5.400000095
2023-06-20T08:50:59.069Z,7
2023-06-20T08:51:59.945Z,7.599999905
2023-06-20T08:53:00.822Z,6.5
2023-06-20T08:54:01.821Z,6.400000095
2023-06-20T08:55:03.448Z,5.699999809
2023-06-20T08:56:04.294Z,5.699999809
2023-06-20T08:57:05.296Z,5.699999809
2023-06-20T08:58:06.372Z,5
2023-06-20T08:59:08.326Z,5.599999905
2023-06-20T09:00:39.612Z,6.400000095
2023-06-20T09:01:43.056Z,6
2023-06-20T09:02:41.987Z,5.900000095
2023-06-20T09:03:43.460Z,6
2023-06-20T09:04:44.345Z,6.300000191
2023-06-20T09:05:45.122Z,5.400000095
2023-06-20T09:06:45.917Z,5.699999809
2023-06-20T09:07:46.722Z,5.800000191
2023-06-20T09:08:48.461Z,6.099999905
2023-06-20T09:09:49.892Z,6.099999905
2023-06-20T09:10:50.752Z,6.099999905
2023-06-20T09:11:52.411Z,6.300000191
2023-06-20T09:12:53.138Z,6.599999905
2023-06-20T09:13:54.008Z,6.199999809
2023-06-20T09:14:54.925Z,6.599999905
2023-06-20T09:15:56.461Z,5.900000095
2023-06-20T09:16:57.407Z,7
2023-06-20T09:17:58.260Z,6
2023-06-20T09:18:59.103Z,6.199999809
2023-06-20T09:19:59.895Z,5.699999809
2023-06-20T09:21:00.843Z,6.099999905
2023-06-20T09:22:12.691Z,6.199999809
2023-06-20T09:23:03.386Z,5.800000191
2023-06-20T09:24:04.205Z,5.699999809
2023-06-20T09:25:05.081Z,5.900000095
2023-06-20T09:26:06.047Z,6.800000191
2023-06-20T09:27:06.968Z,7.599999905
2023-06-20T09:28:38.799Z,7.800000191
2023-06-20T09:29:40.303Z,6.300000191
2023-06-20T09:30:41.209Z,6.099999905
2023-06-20T09:31:42.938Z,5.300000191
2023-06-20T09:32:44.469Z,5.199999809
2023-06-20T09:33:45.399Z,6.199999809
2023-06-20T09:34:46.208Z,8.399999619
2023-06-20T09:35:47.195Z,5.400000095
2023-06-20T09:36:48.135Z,6.199999809
2023-06-20T09:37:49.104Z,5.300000191
2023-06-20T09:38:50.947Z,5
2023-06-20T09:39:51.791Z,5.199999809
2023-06-20T09:40:52.616Z,5.199999809
2023-06-20T09:41:54.403Z,5
2023-06-20T09:42:55.275Z,5.699999809
2023-06-20T09:43:56.999Z,7.199999809
2023-06-20T09:44:57.935Z,7.800000191
2023-06-20T09:45:58.870Z,6.800000191
2023-06-20T09:47:00.432Z,10.19999981
2023-06-20T09:48:01.452Z,7.300000191
2023-06-20T09:49:02.967Z,6.300000191
2023-06-20T09:50:03.911Z,6.199999809
2023-06-20T09:51:05.396Z,7.699999809
2023-06-20T09:52:06.202Z,6.599999905
2023-06-20T09:53:07.014Z,6.199999809
2023-06-20T09:54:38.835Z,6.5
2023-06-20T09:55:39.727Z,6.099999905
2023-06-20T09:56:41.280Z,6.900000095
2023-06-20T09:57:42.041Z,6.5
2023-06-20T09:58:42.787Z,5.699999809
2023-06-20T09:59:44.323Z,5.400000095
2023-06-20T10:00:45.083Z,5.900000095
2023-06-20T10:01:46.429Z,5.800000191
2023-06-20T10:02:47.327Z,5.199999809
2023-06-20T10:03:48.056Z,5.5
2023-06-20T10:04:48.983Z,5.400000095
2023-06-20T10:05:49.991Z,5.199999809
2023-06-20T10:06:50.907Z,5.400000095
2023-06-20T10:07:52.387Z,6.300000191
2023-06-20T10:08:53.938Z,6.099999905
2023-06-20T10:09:55.412Z,5.300000191
2023-06-20T10:10:56.248Z,5.900000095
2023-06-20T10:11:57.184Z,5.800000191
2023-06-20T10:12:58.055Z,5.699999809
2023-06-20T10:13:59.392Z,5.800000191
2023-06-20T10:15:00.204Z,5.900000095
2023-06-20T10:16:01.080Z,5.400000095
2023-06-20T10:17:02.076Z,5.5
2023-06-20T10:18:03.135Z,5
2023-06-20T10:19:04.604Z,5.5
2023-06-20T10:20:05.940Z,5
2023-06-20T10:21:07.323Z,5
2023-06-20T10:22:38.676Z,4.900000095
2023-06-20T10:23:39.579Z,5.099999905
2023-06-20T10:24:40.928Z,4.800000191
2023-06-20T10:25:41.641Z,4.699999809
2023-06-20T10:26:42.469Z,4.800000191
2023-06-20T10:27:44.265Z,5.599999905
2023-06-20T10:28:45.025Z,4.599999905
2023-06-20T10:29:45.791Z,5.800000191
2023-06-20T10:30:46.529Z,5.699999809
2023-06-20T10:31:48.460Z,4.900000095
2023-06-20T10:32:50.009Z,4.900000095
2023-06-20T10:33:50.829Z,5.199999809
2023-06-20T10:34:51.745Z,4.900000095
2023-06-20T10:35:52.555Z,5.800000191
2023-06-20T10:36:53.291Z,6.099999905
2023-06-20T10:37:54.962Z,6.699999809
2023-06-20T10:38:56.526Z,6.400000095
2023-06-20T10:39:57.980Z,5.699999809
2023-06-20T10:40:58.725Z,5.699999809
2023-06-20T10:41:59.580Z,5.300000191
2023-06-20T10:43:00.441Z,5.300000191
2023-06-20T10:44:01.993Z,5.699999809
2023-06-20T10:45:02.819Z,5.599999905
2023-06-20T10:46:03.761Z,6.099999905
2023-06-20T10:47:04.626Z,5.699999809
2023-06-20T10:48:05.668Z,5.699999809
2023-06-20T10:49:38.450Z,5.800000191
2023-06-20T10:50:40.465Z,5.599999905
2023-06-20T10:51:40.310Z,5.800000191
2023-06-20T10:52:41.095Z,6.400000095
2023-06-20T10:53:42.466Z,6.199999809
2023-06-20T10:54:43.314Z,5.599999905
2023-06-20T10:55:44.216Z,5.599999905
2023-06-20T10:56:45.254Z,5.5
2023-06-20T10:57:46.878Z,5.900000095
2023-06-20T10:58:47.743Z,5.300000191
2023-06-20T10:59:49.436Z,5.699999809
2023-06-20T11:00:50.289Z,5.5
2023-06-20T11:01:52.006Z,5.699999809
2023-06-20T11:02:52.993Z,5.5
2023-06-20T11:03:53.708Z,5.900000095
2023-06-20T11:04:54.450Z,5.099999905
2023-06-20T11:05:55.226Z,5
2023-06-20T11:06:56.129Z,4.900000095
2023-06-20T11:07:57.978Z,5.400000095
2023-06-20T11:08:58.810Z,4.599999905
2023-06-20T11:10:00.519Z,5.5
2023-06-20T11:11:01.369Z,4.699999809
2023-06-20T11:12:02.924Z,4.599999905
2023-06-20T11:13:04.480Z,4.400000095
2023-06-20T11:14:06.125Z,4.699999809
2023-06-20T11:15:37.929Z,4.800000191
2023-06-20T11:16:38.854Z,5
2023-06-20T11:17:39.768Z,4.800000191
2023-06-20T11:18:40.669Z,5.099999905
2023-06-20T11:19:42.018Z,4.800000191
2023-06-20T11:20:42.825Z,5.099999905
2023-06-20T11:21:44.376Z,5.300000191
2023-06-20T11:22:45.287Z,4.800000191
2023-06-20T11:23:46.978Z,5.199999809
2023-06-20T11:24:48.234Z,5.199999809
2023-06-20T11:25:48.816Z,5.199999809
2023-06-20T11:26:49.676Z,4.599999905
2023-06-20T11:27:50.610Z,6.599999905
2023-06-20T11:28:59.082Z,5.300000191
2023-06-20T11:29:54.042Z,5.300000191
2023-06-20T11:30:54.889Z,5.099999905
2023-06-20T11:31:56.402Z,4.5
2023-06-20T11:32:57.366Z,5
2023-06-20T11:33:58.988Z,4.900000095
2023-06-20T11:34:59.991Z,4.599999905
2023-06-20T11:36:00.931Z,4.400000095
2023-06-20T11:37:01.779Z,4.699999809
2023-06-20T11:38:02.694Z,3.900000095
2023-06-20T11:39:03.653Z,3.700000048
2023-06-20T11:40:04.655Z,4.400000095
2023-06-20T11:41:05.539Z,3.900000095
2023-06-20T11:42:36.990Z,4.099999905
2023-06-20T11:43:37.834Z,4.199999809
2023-06-20T11:44:39.460Z,4.800000191
2023-06-20T11:45:40.367Z,4.099999905
2023-06-20T11:46:41.342Z,4.099999905
2023-06-20T11:47:42.222Z,4.400000095